Time;durP1;ratioP1;P1;durP2;ratioP2;P2;SDS_P1;SDS_P2;PMS_P1;PMS_P2;Temp;Humidity;BMP_temperature;BMP_pressure;BME280_temperature;BME280_humidity;BME280_pressure;Samples;Min_cycle;Max_cycle;Signal;HPM_P1;HPM_P2
2020/12/01 00:01:16;;;;;;;22.48;11.10;;;5.80;99.90;;;;;;5066571;28;20029;-84
2020/12/01 00:03:41;;;;;;;27.50;12.90;;;5.80;99.90;;;;;;5049539;28;20024;-84
2020/12/01 00:06:08;;;;;;;20.90;11.93;;;5.80;99.90;;;;;;5059719;23;20071;-84
2020/12/01 00:08:36;;;;;;;22.60;11.45;;;5.80;99.90;;;;;;5046204;28;20037;-84
2020/12/01 00:11:01;;;;;;;22.50;12.65;;;5.90;99.90;;;;;;5046185;28;20021;-84
2020/12/01 00:13:27;;;;;;;19.52;9.32;;;5.90;99.90;;;;;;5029911;28;20037;-85
2020/12/01 00:15:53;;;;;;;33.25;16.77;;;5.80;99.90;;;;;;5029773;28;20037;-84
2020/12/01 00:18:18;;;;;;;26.48;13.63;;;6.00;99.90;;;;;;5031070;28;20085;-84
2020/12/01 00:20:44;;;;;;;21.63;11.23;;;6.10;99.90;;;;;;5028856;28;20033;-84
2020/12/01 00:23:09;;;;;;;22.65;11.52;;;6.00;99.90;;;;;;5046011;28;20040;-84
2020/12/01 00:25:35;;;;;;;15.43;8.88;;;6.00;99.90;;;;;;5029581;28;20033;-85
2020/12/01 00:28:00;;;;;;;16.88;8.85;;;5.90;99.90;;;;;;5046246;28;20104;-84
2020/12/01 00:30:26;;;;;;;16.63;8.50;;;5.90;99.90;;;;;;5029575;28;20025;-83
2020/12/01 00:32:52;;;;;;;19.42;9.90;;;5.90;99.90;;;;;;5029161;28;20043;-84
2020/12/01 00:35:23;;;;;;;18.98;9.20;;;5.90;99.90;;;;;;5046745;28;20032;-82
2020/12/01 00:37:50;;;;;;;18.05;8.75;;;6.00;99.90;;;;;;5045627;28;20041;-84
2020/12/01 00:40:16;;;;;;;17.10;8.25;;;5.90;99.90;;;;;;5029239;28;20030;-85
2020/12/01 00:42:41;;;;;;;16.50;7.57;;;5.80;99.90;;;;;;5046805;28;20033;-84
2020/12/01 00:45:08;;;;;;;15.18;8.75;;;5.80;99.90;;;;;;5045512;28;20556;-85
2020/12/01 00:47:34;;;;;;;16.92;8.75;;;5.80;99.90;;;;;;5028851;28;20035;-86
2020/12/01 00:50:00;;;;;;;18.65;9.38;;;5.80;99.90;;;;;;5029161;28;20049;-85
2020/12/01 00:52:27;;;;;;;20.45;10.07;;;5.70;99.90;;;;;;5028984;28;20086;-84
2020/12/01 00:54:53;;;;;;;16.13;9.10;;;5.70;99.90;;;;;;5045434;28;20026;-85
2020/12/01 00:57:19;;;;;;;18.38;8.90;;;5.60;99.90;;;;;;5045485;28;20045;-85
2020/12/01 00:59:44;;;;;;;18.98;9.35;;;5.60;99.90;;;;;;5028964;28;20021;-86
2020/12/01 01:02:17;;;;;;;20.55;8.80;;;5.60;99.90;;;;;;5029874;28;20093;-85
2020/12/01 01:07:20;;;;;;;19.83;10.77;;;5.70;99.90;;;;;;5068214;23;20519;-86
2020/12/01 01:09:46;;;;;;;23.25;10.75;;;5.60;99.90;;;;;;5028991;28;20037;-85
2020/12/01 01:12:12;;;;;;;24.67;10.60;;;5.60;99.90;;;;;;5028972;28;20397;-85
2020/12/01 01:14:38;;;;;;;26.83;11.75;;;5.80;99.90;;;;;;5045035;28;20029;-86
2020/12/01 01:17:03;;;;;;;22.17;10.77;;;5.80;99.90;;;;;;5045006;28;20091;-83
2020/12/01 01:19:29;;;;;;;26.48;11.90;;;5.70;99.90;;;;;;5045291;28;20026;-85
2020/12/01 01:21:55;;;;;;;26.38;13.13;;;5.70;99.90;;;;;;5028787;28;20029;-85
2020/12/01 01:24:20;;;;;;;30.50;13.18;;;5.80;99.90;;;;;;5028599;28;20116;-84
2020/12/01 01:26:53;;;;;;;23.23;12.73;;;5.80;99.90;;;;;;5045135;28;20037;-85
2020/12/01 01:29:21;;;;;;;30.90;12.40;;;5.80;99.90;;;;;;5044871;28;20071;-84
2020/12/01 01:31:46;;;;;;;21.13;10.30;;;5.80;99.90;;;;;;5044705;28;20041;-85
2020/12/01 01:34:12;;;;;;;29.33;14.40;;;5.80;99.90;;;;;;5024742;28;20030;-84
2020/12/01 01:36:39;;;;;;;25.05;12.50;;;5.90;99.90;;;;;;5041540;28;20046;-84
2020/12/01 01:39:07;;;;;;;24.95;12.30;;;6.00;99.90;;;;;;5025364;28;20049;-84
2020/12/01 01:41:36;;;;;;;22.17;11.43;;;6.00;99.90;;;;;;5026225;28;20046;-84
2020/12/01 01:44:01;;;;;;;22.00;11.85;;;6.10;99.90;;;;;;5041482;28;20084;-84
2020/12/01 01:46:33;;;;;;;22.00;11.27;;;6.10;99.90;;;;;;5041614;28;20038;-84
2020/12/01 01:49:00;;;;;;;21.63;10.10;;;6.00;99.90;;;;;;5041513;28;20041;-83
2020/12/01 01:51:26;;;;;;;18.77;10.52;;;5.90;99.90;;;;;;5025172;28;20034;-84
2020/12/01 01:53:54;;;;;;;21.40;10.75;;;6.00;99.90;;;;;;5041382;28;20034;-84
2020/12/01 01:56:26;;;;;;;19.27;10.18;;;6.00;99.90;;;;;;5041525;28;20034;-85
2020/12/01 01:58:53;;;;;;;20.50;9.93;;;6.00;99.90;;;;;;5041378;28;20037;-84
2020/12/01 02:01:23;;;;;;;16.45;9.73;;;6.00;99.90;;;;;;5041526;28;20486;-84
2020/12/01 02:07:14;;;;;;;16.70;8.60;;;6.00;99.90;;;;;;5065141;23;20061;-84
2020/12/01 02:09:49;;;;;;;18.92;8.82;;;5.90;99.90;;;;;;5044820;28;20033;-83
2020/12/01 02:12:16;;;;;;;17.52;8.57;;;5.90;99.90;;;;;;5044587;28;20071;-84
2020/12/01 02:15:00;;;;;;;18.08;9.18;;;5.80;99.90;;;;;;5044274;28;20029;-86
2020/12/01 02:17:30;;;;;;;16.92;8.27;;;5.80;99.90;;;;;;5028118;28;20538;-84
2020/12/01 02:20:04;;;;;;;12.73;7.82;;;5.80;99.90;;;;;;5044438;28;20033;-86
2020/12/01 02:22:30;;;;;;;15.25;7.38;;;5.70;99.90;;;;;;5044740;28;20037;-84
2020/12/01 02:24:57;;;;;;;15.80;9.10;;;5.60;99.90;;;;;;5044572;28;20037;-86
2020/12/01 02:27:25;;;;;;;17.55;7.82;;;5.70;99.90;;;;;;5028074;28;20041;-86
2020/12/01 02:29:54;;;;;;;14.25;6.63;;;5.70;99.90;;;;;;5027988;28;20242;-84
2020/12/01 02:32:24;;;;;;;14.30;6.93;;;5.60;99.90;;;;;;5027831;28;20060;-84
2020/12/01 02:34:50;;;;;;;14.07;6.47;;;5.60;99.90;;;;;;5024219;28;20034;-84
2020/12/01 02:37:19;;;;;;;19.27;7.60;;;5.60;99.90;;;;;;5008336;28;20049;-86
2020/12/01 02:39:45;;;;;;;13.48;5.97;;;5.80;99.90;;;;;;5008114;28;20466;-84
2020/12/01 02:42:15;;;;;;;13.38;6.03;;;5.70;99.90;;;;;;5024482;28;20117;-84
2020/12/01 02:44:41;;;;;;;;;;;5.80;99.90;;;;;;5010845;28;20057;-84
2020/12/01 02:47:07;;;;;;;18.08;6.47;;;5.80;99.90;;;;;;5044842;28;19910;-84
2020/12/01 02:49:34;;;;;;;11.07;5.30;;;5.80;99.90;;;;;;5011693;28;20104;-86
2020/12/01 02:51:59;;;;;;;14.20;5.63;;;5.70;99.90;;;;;;5011689;28;20038;-84
2020/12/01 02:54:25;;;;;;;13.77;4.82;;;5.60;99.90;;;;;;5012726;28;20034;-85
2020/12/01 02:56:51;;;;;;;10.82;4.60;;;5.70;99.90;;;;;;5013104;28;20041;-85
2020/12/01 02:59:16;;;;;;;15.98;5.30;;;5.60;99.90;;;;;;5013259;28;20068;-85
2020/12/01 03:01:43;;;;;;;12.82;3.95;;;5.60;99.90;;;;;;5012472;28;20136;-87
2020/12/01 03:07:15;;;;;;;10.70;3.70;;;5.50;99.90;;;;;;5061874;23;20409;-85
2020/12/01 03:09:40;;;;;;;14.13;2.80;;;5.50;99.90;;;;;;5030929;28;20034;-85
2020/12/01 03:12:06;;;;;;;12.13;2.80;;;5.60;99.90;;;;;;5047424;28;20048;-84
2020/12/01 03:14:32;;;;;;;14.02;2.97;;;5.60;99.90;;;;;;5030466;28;20029;-85
2020/12/01 03:16:58;;;;;;;8.20;2.35;;;5.60;99.90;;;;;;5030812;28;20087;-85
2020/12/01 03:19:24;;;;;;;12.18;2.08;;;5.50;99.90;;;;;;5030621;28;20079;-84
2020/12/01 03:21:50;;;;;;;9.95;2.20;;;5.50;99.90;;;;;;5030665;28;20500;-84
2020/12/01 03:24:15;;;;;;;12.75;1.65;;;5.60;99.90;;;;;;5030521;28;20037;-87
2020/12/01 03:26:41;;;;;;;7.75;1.30;;;5.60;99.90;;;;;;5047179;28;20025;-84
2020/12/01 03:29:07;;;;;;;14.60;1.67;;;5.60;99.90;;;;;;5030388;28;20084;-86
2020/12/01 03:31:32;;;;;;;8.93;1.38;;;5.60;99.90;;;;;;5030576;28;20037;-86
2020/12/01 03:33:58;;;;;;;10.10;0.95;;;5.50;99.90;;;;;;5030472;28;20036;-84
2020/12/01 03:36:24;;;;;;;5.80;1.38;;;5.50;99.90;;;;;;5030240;28;20045;-84
2020/12/01 03:38:50;;;;;;;9.40;1.13;;;5.40;99.90;;;;;;5030515;28;20025;-85
2020/12/01 03:41:16;;;;;;;5.95;1.00;;;5.40;99.90;;;;;;5030319;28;20477;-83
2020/12/01 03:43:42;;;;;;;13.00;1.15;;;5.40;99.90;;;;;;5030259;28;20025;-84
2020/12/01 03:46:08;;;;;;;8.00;0.95;;;5.40;99.90;;;;;;5046607;28;20040;-84
2020/12/01 03:48:34;;;;;;;11.20;0.80;;;5.30;99.90;;;;;;5030446;28;20036;-87
2020/12/01 03:50:59;;;;;;;8.35;0.70;;;5.20;99.90;;;;;;5030078;28;20065;-86
2020/12/01 03:53:25;;;;;;;8.85;0.90;;;5.30;99.90;;;;;;5029986;28;20119;-83
2020/12/01 03:55:51;;;;;;;10.60;0.80;;;5.40;99.90;;;;;;5046009;28;20034;-86
2020/12/01 03:58:18;;;;;;;10.05;0.93;;;5.20;99.90;;;;;;5030102;28;20041;-85
2020/12/01 04:00:43;;;;;;;12.38;1.00;;;5.10;99.90;;;;;;5030096;28;20032;-83
2020/12/01 04:03:09;;;;;;;6.88;0.50;;;4.90;99.90;;;;;;5029955;28;20057;-84
2020/12/01 04:05:35;;;;;;;7.90;0.50;;;5.00;99.90;;;;;;5055174;23;20046;-82
2020/12/01 04:08:00;;;;;;;7.50;0.60;;;5.10;99.90;;;;;;5043556;28;20029;-85
2020/12/01 04:10:29;;;;;;;8.90;0.50;;;4.90;99.90;;;;;;5043359;28;20034;-85
2020/12/01 04:12:55;;;;;;;9.32;0.90;;;4.70;99.90;;;;;;5043206;28;20520;-83
2020/12/01 04:15:22;;;;;;;4.43;0.47;;;4.80;99.90;;;;;;5043033;28;20030;-84
2020/12/01 04:17:48;;;;;;;7.47;0.45;;;4.70;99.90;;;;;;5043161;28;20448;-86
2020/12/01 04:20:14;;;;;;;10.40;0.50;;;4.70;99.90;;;;;;5043265;28;20034;-84
2020/12/01 04:22:40;;;;;;;5.32;0.57;;;4.80;99.90;;;;;;5042861;28;20038;-83
2020/12/01 04:25:08;;;;;;;6.93;0.55;;;4.80;99.90;;;;;;5026479;28;20030;-85
2020/12/01 04:27:35;;;;;;;9.65;0.70;;;4.80;99.90;;;;;;5043071;28;20430;-85
2020/12/01 04:30:01;;;;;;;7.20;0.60;;;4.90;99.90;;;;;;5042955;28;20029;-83
2020/12/01 04:32:26;;;;;;;9.15;0.60;;;4.90;99.90;;;;;;5042499;28;20041;-86
2020/12/01 04:34:52;;;;;;;9.27;0.40;;;5.00;99.90;;;;;;5028199;28;20039;-84
2020/12/01 04:37:18;;;;;;;9.68;0.50;;;5.10;99.90;;;;;;5006316;28;20046;-87
2020/12/01 04:39:43;;;;;;;7.30;1.00;;;5.30;99.90;;;;;;5006710;28;20026;-86
2020/12/01 04:42:16;;;;;;;12.55;0.43;;;5.30;99.90;;;;;;5006520;28;20034;-84
2020/12/01 04:44:48;;;;;;;12.30;0.45;;;5.30;99.90;;;;;;5006500;28;20034;-83
2020/12/01 04:47:22;;;;;;;6.95;0.30;;;5.40;99.90;;;;;;5006508;28;20034;-84
2020/12/01 04:50:43;;;;;;;6.38;0.40;;;5.40;99.90;;;;;;5006631;28;20038;-84
2020/12/01 04:53:38;;;;;;;5.07;0.40;;;5.40;99.90;;;;;;4994344;28;20042;-86
2020/12/01 04:56:28;;;;;;;2.97;0.20;;;5.40;99.90;;;;;;4989867;28;20038;-83
2020/12/01 04:59:40;;;;;;;8.38;0.50;;;5.50;99.90;;;;;;5006173;28;20064;-83
2020/12/01 05:02:30;;;;;;;10.20;0.30;;;5.50;99.90;;;;;;5006197;28;20406;-85
2020/12/01 05:08:41;;;;;;;6.15;0.28;;;5.60;99.90;;;;;;5058757;23;20058;-84
2020/12/01 05:11:24;;;;;;;6.07;0.30;;;5.50;99.90;;;;;;5045180;28;20052;-86
2020/12/01 05:14:15;;;;;;;2.17;0.20;;;5.40;99.90;;;;;;5045193;28;20049;-86
2020/12/01 05:16:41;;;;;;;5.60;0.55;;;5.40;99.90;;;;;;5044397;28;20053;-83
2020/12/01 05:19:46;;;;;;;9.02;0.45;;;5.40;99.90;;;;;;5028976;28;20116;-85
2020/12/01 05:22:15;;;;;;;12.75;0.60;;;5.40;99.90;;;;;;4977751;28;20046;-83
2020/12/01 05:24:47;;;;;;;4.45;0.60;;;5.40;99.90;;;;;;5028273;28;20129;-86
2020/12/01 05:27:30;;;;;;;11.38;0.75;;;5.40;99.90;;;;;;5044816;28;20037;-85
2020/12/01 05:29:59;;;;;;;9.52;0.70;;;5.50;99.90;;;;;;5035614;28;20432;-86
2020/12/01 05:32:34;;;;;;;6.90;0.60;;;5.50;99.90;;;;;;5025247;28;20037;-84
2020/12/01 05:35:31;;;;;;;13.45;0.70;;;5.60;99.90;;;;;;5027855;28;20025;-84
2020/12/01 05:38:12;;;;;;;11.30;0.55;;;5.70;99.90;;;;;;5044975;28;20052;-84
2020/12/01 05:40:50;;;;;;;7.00;0.60;;;5.70;99.90;;;;;;5028280;28;20033;-84
2020/12/01 05:43:31;;;;;;;11.20;1.05;;;5.80;99.90;;;;;;5026485;28;20029;-85
2020/12/01 05:46:21;;;;;;;9.30;1.67;;;5.80;99.90;;;;;;5027975;28;20075;-86
2020/12/01 05:49:01;;;;;;;11.45;0.60;;;5.80;99.90;;;;;;5022967;28;20042;-82
2020/12/01 05:51:36;;;;;;;8.63;0.47;;;5.80;99.90;;;;;;5008284;28;20053;-86
2020/12/01 05:54:02;;;;;;;9.23;0.60;;;5.90;99.90;;;;;;5008592;28;20034;-87
2020/12/01 05:56:28;;;;;;;12.52;0.47;;;5.80;99.90;;;;;;5008011;28;20065;-84
2020/12/01 05:59:05;;;;;;;5.25;0.93;;;5.90;99.90;;;;;;5017992;28;20484;-84
2020/12/01 06:01:43;;;;;;;5.10;0.63;;;5.90;99.90;;;;;;5045501;28;20030;-84
2020/12/01 06:08:04;;;;;;;6.38;0.70;;;5.90;99.90;;;;;;5003410;28;20049;-85
2020/12/01 06:10:46;;;;;;;5.88;0.40;;;5.90;99.90;;;;;;4971357;28;20039;-85
2020/12/01 06:13:36;;;;;;;7.10;0.40;;;6.00;99.90;;;;;;4984199;28;20077;-84
2020/12/01 06:16:28;;;;;;;6.55;0.80;;;5.90;99.90;;;;;;4986159;28;20066;-85
2020/12/01 06:19:04;;;;;;;4.63;0.40;;;5.90;99.90;;;;;;4972262;28;20088;-83
2020/12/01 06:22:01;;;;;;;5.75;0.60;;;5.90;99.90;;;;;;5007210;28;20057;-84
2020/12/01 06:25:03;;;;;;;7.57;0.50;;;6.00;99.90;;;;;;5007536;28;20130;-86
2020/12/01 06:27:59;;;;;;;5.90;0.50;;;6.00;99.90;;;;;;5007047;28;20053;-86
2020/12/01 06:30:34;;;;;;;5.70;1.02;;;5.90;99.90;;;;;;5007240;28;20050;-85
2020/12/01 06:33:25;;;;;;;11.13;1.00;;;5.90;99.90;;;;;;5007362;28;20419;-84
2020/12/01 06:36:21;;;;;;;7.32;0.88;;;5.90;99.90;;;;;;5007027;28;20506;-83
2020/12/01 06:39:22;;;;;;;9.95;0.70;;;6.00;99.90;;;;;;5007295;28;20065;-84
2020/12/01 06:42:00;;;;;;;7.18;0.75;;;6.00;99.90;;;;;;5002454;28;20085;-83
2020/12/01 06:44:27;;;;;;;18.50;1.13;;;6.00;99.90;;;;;;5026324;28;20105;-84
2020/12/01 06:46:56;;;;;;;7.60;1.38;;;6.00;99.90;;;;;;5047697;28;20036;-84
2020/12/01 06:49:27;;;;;;;8.05;1.45;;;6.10;99.90;;;;;;5047708;28;20052;-83
2020/12/01 06:51:57;;;;;;;8.88;1.15;;;6.10;99.90;;;;;;5030774;28;20033;-82
2020/12/01 06:54:23;;;;;;;9.38;1.42;;;6.10;99.90;;;;;;5046965;28;20056;-83
2020/12/01 06:57:01;;;;;;;15.77;2.42;;;6.10;99.90;;;;;;5030642;28;20401;-83
2020/12/01 06:59:29;;;;;;;14.13;1.80;;;6.10;99.90;;;;;;5030227;28;20030;-83
2020/12/01 07:02:17;;;;;;;12.20;2.13;;;6.20;99.90;;;;;;5036730;28;20374;-81
2020/12/01 07:04:43;;;;;;;6.60;1.85;;;6.20;99.90;;;;;;5047220;28;20029;-83
2020/12/01 07:07:30;;;;;;;5.68;1.17;;;6.10;99.90;;;;;;5030644;28;20033;-84
2020/12/01 07:09:56;;;;;;;6.85;1.80;;;6.10;99.90;;;;;;5047869;28;20073;-82
2020/12/01 07:12:22;;;;;;;6.82;1.80;;;6.10;99.90;;;;;;5030667;28;20043;-83
2020/12/01 07:14:54;;;;;;;7.88;1.98;;;6.10;99.90;;;;;;5047306;28;20108;-84
2020/12/01 07:17:25;;;;;;;8.85;1.73;;;6.20;99.90;;;;;;5047012;28;20066;-83
2020/12/01 07:20:07;;;;;;;10.95;2.30;;;6.20;99.90;;;;;;5046984;28;20048;-83
2020/12/01 07:22:52;;;;;;;11.52;3.20;;;6.20;99.90;;;;;;5048177;28;20055;-83
2020/12/01 07:25:21;;;;;;;8.65;1.90;;;6.20;99.90;;;;;;5046573;28;20104;-83
2020/12/01 07:28:18;;;;;;;5.95;1.23;;;6.20;99.90;;;;;;5048258;28;20033;-83
2020/12/01 07:31:00;;;;;;;8.68;2.45;;;6.40;99.90;;;;;;5047354;28;20029;-83
2020/12/01 07:33:33;;;;;;;9.00;3.67;;;6.40;99.90;;;;;;5006827;28;20633;-83
2020/12/01 07:36:15;;;;;;;6.65;2.80;;;6.40;99.90;;;;;;5024499;28;20056;-83
2020/12/01 07:38:46;;;;;;;10.50;3.60;;;6.50;99.90;;;;;;5044399;28;20095;-83
2020/12/01 07:41:25;;;;;;;10.50;4.10;;;6.50;99.90;;;;;;5042225;28;20030;-83
2020/12/01 07:44:03;;;;;;;11.60;3.63;;;6.50;99.90;;;;;;5029993;28;20068;-82
2020/12/01 07:46:31;;;;;;;9.95;3.85;;;6.50;99.90;;;;;;5046317;28;20049;-84
2020/12/01 07:49:01;;;;;;;10.77;3.90;;;6.50;99.90;;;;;;5046228;28;20040;-82
2020/12/01 07:51:29;;;;;;;11.57;4.68;;;6.60;99.90;;;;;;5046524;28;20033;-83
2020/12/01 07:53:56;;;;;;;8.73;4.10;;;6.60;99.90;;;;;;5028976;28;20033;-82
2020/12/01 07:56:25;;;;;;;10.25;4.82;;;6.60;99.90;;;;;;5045344;28;20049;-82
2020/12/01 07:59:09;;;;;;;8.05;3.63;;;6.70;99.90;;;;;;5045853;28;20083;-84
2020/12/01 08:01:35;;;;;;;12.27;4.95;;;6.70;99.90;;;;;;5045421;28;20037;-83
2020/12/01 08:04:22;;;;;;;9.75;4.10;;;6.70;99.90;;;;;;5028660;28;20040;-83
2020/12/01 08:07:05;;;;;;;5.78;2.67;;;6.80;99.90;;;;;;4988602;28;20039;-83
2020/12/01 08:09:31;;;;;;;6.70;2.30;;;6.80;99.90;;;;;;4988581;28;20050;-83
2020/12/01 08:12:09;;;;;;;8.40;2.53;;;6.90;99.90;;;;;;4988393;28;20043;-82
2020/12/01 08:14:35;;;;;;;3.72;1.50;;;7.20;99.90;;;;;;4995226;28;20038;-82
2020/12/01 08:17:06;;;;;;;3.75;1.27;;;7.30;99.90;;;;;;5024381;28;20129;-83
2020/12/01 08:19:32;;;;;;;3.80;1.05;;;7.30;99.90;;;;;;5024727;28;20098;-82
2020/12/01 08:21:59;;;;;;;3.90;0.80;;;7.30;99.90;;;;;;5024360;28;20033;-82
2020/12/01 08:24:28;;;;;;;2.80;0.70;;;7.40;99.90;;;;;;5023956;28;20485;-82
2020/12/01 08:27:11;;;;;;;7.18;0.60;;;7.50;99.90;;;;;;5007674;28;20096;-82
2020/12/01 08:29:39;;;;;;;6.22;0.60;;;7.70;99.90;;;;;;5007863;28;20037;-83
2020/12/01 08:32:29;;;;;;;6.57;0.60;;;7.70;99.90;;;;;;5007645;28;20195;-82
2020/12/01 08:35:26;;;;;;;5.47;0.57;;;7.80;99.90;;;;;;5024181;28;20042;-83
2020/12/01 08:38:10;;;;;;;7.45;0.70;;;7.80;99.90;;;;;;5005358;28;20076;-82
2020/12/01 08:40:49;;;;;;;6.95;0.68;;;7.80;99.90;;;;;;5006916;28;20108;-82
2020/12/01 08:43:59;;;;;;;7.07;0.50;;;7.90;99.90;;;;;;5023777;28;20042;-83
2020/12/01 08:46:27;;;;;;;6.90;0.50;;;7.90;99.90;;;;;;5003158;28;20052;-83
2020/12/01 08:49:23;;;;;;;7.50;0.47;;;7.90;99.90;;;;;;5024912;28;20034;-81
2020/12/01 08:51:51;;;;;;;9.07;0.50;;;7.90;99.90;;;;;;5008538;28;20032;-82
2020/12/01 08:54:22;;;;;;;9.90;0.55;;;7.90;99.90;;;;;;5024615;28;20129;-83
2020/12/01 08:56:47;;;;;;;10.25;0.60;;;7.90;99.90;;;;;;5024650;28;20042;-84
2020/12/01 08:59:27;;;;;;;19.95;0.80;;;7.90;99.90;;;;;;5024750;28;20034;-84
2020/12/01 09:01:58;;;;;;;12.80;0.73;;;7.80;99.90;;;;;;5024743;28;20037;-84
2020/12/01 09:04:26;;;;;;;11.65;0.55;;;7.80;99.90;;;;;;5007391;28;20038;-84
2020/12/01 09:06:56;;;;;;;12.93;1.40;;;7.80;99.90;;;;;;5024372;28;20058;-84
2020/12/01 09:09:25;;;;;;;17.13;0.90;;;7.80;99.90;;;;;;5008328;28;20061;-83
2020/12/01 09:21:50;;;;;;;19.50;1.60;;;7.90;99.90;;;;;;5044429;28;20105;-81
2020/12/01 09:24:01;;;;;;;22.42;0.95;;;7.90;99.90;;;;;;5044128;28;20052;-82
2020/12/01 09:26:27;;;;;;;20.73;0.82;;;7.90;99.90;;;;;;5044283;28;20044;-84
2020/12/01 09:28:54;;;;;;;21.98;1.42;;;7.90;99.90;;;;;;5027496;28;20037;-82
2020/12/01 09:31:22;;;;;;;21.02;1.33;;;7.90;99.90;;;;;;5027503;28;20072;-82
2020/12/01 09:33:47;;;;;;;20.17;1.33;;;7.90;99.90;;;;;;5023852;28;20445;-82
2020/12/01 09:36:23;;;;;;;24.95;1.25;;;7.90;99.90;;;;;;5008047;28;20042;-84
2020/12/01 09:38:49;;;;;;;26.80;1.52;;;7.90;99.90;;;;;;5024538;28;20037;-83
2020/12/01 09:41:19;;;;;;;37.70;1.75;;;7.90;99.90;;;;;;5008086;28;20029;-84
2020/12/01 09:47:02;;;;;;;18.60;1.60;;;8.00;99.90;;;;;;5024375;28;20034;-83
2020/12/01 09:49:17;;;;;;;18.92;0.93;;;8.00;99.90;;;;;;5021089;28;20097;-82
2020/12/01 09:51:53;;;;;;;26.08;1.58;;;8.00;99.90;;;;;;5007744;28;20038;-82
2020/12/01 09:54:27;;;;;;;23.00;2.20;;;8.00;99.90;;;;;;5027946;28;20030;-82
2020/12/01 09:57:03;;;;;;;33.40;2.38;;;8.00;99.90;;;;;;5028225;28;20044;-82
2020/12/01 10:21:15;;;;;;;20.10;0.95;;;8.10;99.90;;;;;;5047500;28;20044;-82
2020/12/01 10:36:38;;;;;;;33.85;1.48;;;8.00;99.90;;;;;;5047336;28;20124;-83
2020/12/01 10:39:04;;;;;;;16.50;0.80;;;8.00;99.90;;;;;;5047268;28;20389;-82
2020/12/01 10:41:31;;;;;;;16.45;0.65;;;8.00;99.90;;;;;;5030631;28;20033;-82
2020/12/01 10:43:57;;;;;;;17.05;1.48;;;8.00;99.90;;;;;;5046981;28;20040;-82
2020/12/01 10:46:23;;;;;;;19.35;0.90;;;8.00;99.90;;;;;;5047055;28;20056;-82
2020/12/01 10:48:49;;;;;;;23.17;1.02;;;8.00;99.90;;;;;;5047077;28;20029;-82
2020/12/01 10:51:15;;;;;;;22.13;2.03;;;8.00;99.90;;;;;;5047036;28;20026;-83
2020/12/01 10:53:40;;;;;;;22.13;1.48;;;8.00;99.90;;;;;;5046782;28;20042;-83
2020/12/01 10:56:06;;;;;;;16.05;1.13;;;7.90;99.90;;;;;;5046710;28;20095;-83
2020/12/01 10:58:32;;;;;;;20.95;1.38;;;8.00;99.90;;;;;;5047112;28;20041;-83
2020/12/01 11:00:57;;;;;;;19.95;0.70;;;8.00;99.90;;;;;;5046727;28;20033;-86
2020/12/01 11:03:23;;;;;;;16.83;0.85;;;8.10;99.90;;;;;;5046623;28;20123;-81
2020/12/01 11:05:48;;;;;;;17.75;0.75;;;8.10;99.90;;;;;;5045396;28;20045;-83
2020/12/01 11:08:14;;;;;;;19.05;1.17;;;8.10;99.90;;;;;;5046732;28;20048;-82
2020/12/01 11:10:41;;;;;;;25.88;1.02;;;8.10;99.90;;;;;;5046634;28;20022;-84
2020/12/01 11:13:08;;;;;;;27.67;1.30;;;8.10;99.90;;;;;;5046521;28;20047;-83
2020/12/01 11:15:33;;;;;;;22.13;1.48;;;8.10;99.90;;;;;;5046556;28;20030;-83
2020/12/01 11:17:59;;;;;;;19.08;1.02;;;8.20;99.90;;;;;;5029794;28;20045;-84
2020/12/01 11:20:24;;;;;;;21.63;1.00;;;8.20;99.90;;;;;;5029983;28;20057;-82
2020/12/01 11:22:51;;;;;;;18.67;0.95;;;8.20;99.90;;;;;;5046126;28;20030;-82
2020/12/01 11:25:18;;;;;;;13.80;0.85;;;8.20;99.90;;;;;;5029621;28;20072;-84
2020/12/01 11:27:45;;;;;;;18.63;0.80;;;8.20;99.90;;;;;;5029665;28;20026;-82
2020/12/01 11:30:15;;;;;;;24.73;1.98;;;8.20;99.90;;;;;;5029797;28;20041;-84
2020/12/01 11:32:41;;;;;;;21.38;1.65;;;8.20;99.90;;;;;;5030011;28;20120;-83
2020/12/01 11:35:07;;;;;;;28.58;2.25;;;8.20;99.90;;;;;;5029264;28;20029;-82
2020/12/01 11:37:33;;;;;;;23.92;1.15;;;8.30;99.90;;;;;;5045918;28;20041;-83
2020/12/01 11:39:59;;;;;;;29.58;1.38;;;8.20;99.90;;;;;;5046006;28;20121;-83
2020/12/01 11:42:25;;;;;;;21.85;1.38;;;8.20;99.90;;;;;;5046039;28;20061;-82
2020/12/01 11:44:51;;;;;;;15.43;0.70;;;8.30;99.90;;;;;;5046054;28;20064;-83
2020/12/01 11:47:16;;;;;;;19.73;1.40;;;8.30;99.90;;;;;;5045884;28;20034;-83
2020/12/01 11:49:42;;;;;;;21.60;1.15;;;8.40;99.90;;;;;;5045795;28;20036;-82
2020/12/01 11:52:08;;;;;;;20.08;1.02;;;8.40;99.90;;;;;;5045779;28;20040;-86
2020/12/01 11:54:33;;;;;;;23.42;1.88;;;8.50;99.90;;;;;;5046024;28;20029;-81
2020/12/01 11:56:59;;;;;;;16.58;0.75;;;8.50;99.90;;;;;;5045829;28;20116;-82
2020/12/01 11:59:24;;;;;;;16.15;0.88;;;8.50;99.90;;;;;;5048172;28;20026;-82
2020/12/01 12:01:50;;;;;;;16.40;1.20;;;8.40;99.90;;;;;;5045615;28;20034;-82
2020/12/01 12:04:16;;;;;;;18.65;0.88;;;8.50;99.90;;;;;;5045615;28;20037;-81
2020/12/01 12:06:41;;;;;;;15.40;1.05;;;8.50;99.90;;;;;;5045284;28;20464;-84
2020/12/01 12:09:09;;;;;;;25.92;1.40;;;8.50;99.90;;;;;;5021517;28;20649;-82
2020/12/01 12:11:35;;;;;;;20.20;1.23;;;8.50;99.90;;;;;;5025506;28;20061;-82
2020/12/01 12:14:01;;;;;;;28.23;1.67;;;8.50;99.90;;;;;;5010816;28;20057;-86
2020/12/01 12:16:27;;;;;;;24.55;2.55;;;8.50;99.90;;;;;;5028219;28;20191;-82
2020/12/01 12:18:53;;;;;;;15.48;1.42;;;8.60;99.90;;;;;;5045234;28;20049;-82
2020/12/01 12:21:18;;;;;;;16.27;1.88;;;8.60;99.90;;;;;;5028204;28;20065;-81
2020/12/01 12:23:45;;;;;;;15.15;1.58;;;8.60;99.90;;;;;;5028380;28;20029;-82
2020/12/01 12:26:11;;;;;;;20.73;1.35;;;8.60;99.90;;;;;;5028440;28;20035;-82
2020/12/01 12:28:37;;;;;;;18.00;2.15;;;8.60;99.90;;;;;;5045249;28;20033;-82
2020/12/01 12:31:02;;;;;;;17.15;0.98;;;8.60;99.90;;;;;;5028547;28;20343;-83
2020/12/01 12:33:32;;;;;;;17.23;2.08;;;8.60;99.90;;;;;;5028163;28;20044;-82
2020/12/01 12:35:58;;;;;;;15.18;1.40;;;8.50;99.90;;;;;;5028313;28;20334;-82
2020/12/01 12:38:24;;;;;;;14.20;0.98;;;8.50;99.90;;;;;;5044851;28;20030;-82
2020/12/01 12:40:51;;;;;;;11.95;0.55;;;8.50;99.90;;;;;;5044977;28;20040;-83
2020/12/01 12:43:21;;;;;;;15.77;0.85;;;8.50;99.90;;;;;;5028143;28;20109;-86
2020/12/01 12:45:47;;;;;;;18.42;0.88;;;8.50;99.90;;;;;;5044656;28;20036;-84
2020/12/01 12:48:14;;;;;;;16.20;0.98;;;8.50;99.90;;;;;;5044525;28;20025;-82
2020/12/01 12:50:39;;;;;;;22.55;1.15;;;8.60;99.90;;;;;;5044748;28;20029;-83
2020/12/01 12:53:05;;;;;;;12.52;0.82;;;8.60;99.90;;;;;;5044732;28;20041;-82
2020/12/01 12:55:31;;;;;;;11.15;1.27;;;8.70;99.90;;;;;;5044463;28;20053;-83
2020/12/01 12:57:59;;;;;;;14.13;0.50;;;8.70;99.90;;;;;;5044549;28;20048;-82
2020/12/01 13:00:28;;;;;;;13.82;1.15;;;8.70;99.90;;;;;;5044521;28;20029;-83
2020/12/01 13:02:54;;;;;;;14.85;0.73;;;8.70;99.90;;;;;;5044521;28;20454;-84
2020/12/01 13:05:20;;;;;;;13.23;0.68;;;8.80;99.90;;;;;;5044107;28;20125;-83
2020/12/01 13:07:46;;;;;;;19.63;0.95;;;8.80;99.90;;;;;;5044604;28;20044;-83
2020/12/01 13:10:12;;;;;;;20.58;1.02;;;8.80;99.90;;;;;;5044666;28;20029;-84
2020/12/01 13:12:38;;;;;;;16.08;0.80;;;8.80;99.90;;;;;;5027792;28;20061;-83
2020/12/01 13:15:05;;;;;;;13.02;1.02;;;8.80;99.90;;;;;;5043968;28;20523;-83
2020/12/01 13:17:31;;;;;;;26.52;1.38;;;8.80;99.90;;;;;;5027744;28;20049;-82
2020/12/01 13:19:56;;;;;;;14.65;0.73;;;8.90;99.90;;;;;;5027619;28;20079;-83
2020/12/01 13:22:22;;;;;;;12.20;0.90;;;8.90;99.90;;;;;;5027544;28;20108;-83
2020/12/01 13:24:47;;;;;;;17.50;0.80;;;8.90;99.90;;;;;;5027466;28;20036;-82
2020/12/01 13:27:13;;;;;;;16.67;0.90;;;9.00;99.90;;;;;;5043660;28;20056;-82
2020/12/01 13:29:39;;;;;;;24.52;1.13;;;8.90;99.90;;;;;;5027578;28;20033;-82
2020/12/01 13:32:04;;;;;;;20.40;1.17;;;8.90;99.90;;;;;;5027076;28;20147;-82
2020/12/01 13:34:30;;;;;;;11.60;0.65;;;8.90;99.90;;;;;;5023700;28;20034;-83
2020/12/01 13:36:56;;;;;;;15.48;0.80;;;8.90;99.90;;;;;;5023979;28;20100;-82
2020/12/01 13:39:23;;;;;;;13.70;1.10;;;8.90;99.90;;;;;;5024530;28;20048;-82
2020/12/01 13:41:52;;;;;;;15.50;1.10;;;8.90;99.90;;;;;;5007572;28;20038;-83
2020/12/01 13:44:19;;;;;;;14.90;1.00;;;8.90;99.90;;;;;;5007888;28;20088;-83
2020/12/01 13:46:45;;;;;;;13.80;0.75;;;8.90;99.90;;;;;;5007589;28;20037;-83
2020/12/01 13:49:12;;;;;;;13.15;1.05;;;8.90;99.90;;;;;;5024150;28;20038;-84
2020/12/01 13:51:38;;;;;;;7.30;0.85;;;8.80;99.90;;;;;;5023974;28;20042;-82
2020/12/01 13:54:04;;;;;;;11.32;1.10;;;8.90;99.90;;;;;;5024060;28;20038;-82
2020/12/01 13:56:30;;;;;;;12.52;0.85;;;8.80;99.90;;;;;;5023876;28;20088;-81
2020/12/01 13:58:55;;;;;;;9.82;0.52;;;8.80;99.90;;;;;;5007932;28;20508;-82
2020/12/01 14:01:21;;;;;;;13.23;0.85;;;8.80;99.90;;;;;;5007422;28;20057;-82
2020/12/01 14:03:46;;;;;;;8.35;0.55;;;8.70;99.90;;;;;;5007761;28;20030;-82
2020/12/01 14:06:16;;;;;;;10.88;0.60;;;8.80;99.90;;;;;;5024005;23;20077;-83
2020/12/01 14:08:42;;;;;;;10.27;0.50;;;8.80;99.90;;;;;;5040975;28;20026;-83
2020/12/01 14:11:09;;;;;;;8.55;0.38;;;8.80;99.90;;;;;;5040799;28;20053;-82